sensor_id;sensor_type;location;lat;lon;timestamp;P1;durP1;ratioP1;P2;durP2;ratioP2
948;SDS011;461;51.436;7.312;2024-03-22T00:13:03;25.70;;;16.57;;
948;SDS011;461;51.436;7.312;2024-03-22T00:15:29;34.43;;;17.33;;
948;SDS011;461;51.436;7.312;2024-03-22T00:17:54;33.57;;;18.53;;
948;SDS011;461;51.436;7.312;2024-03-22T00:20:20;31.43;;;18.30;;
948;SDS011;461;51.436;7.312;2024-03-22T00:22:46;32.90;;;17.40;;
948;SDS011;461;51.436;7.312;2024-03-22T00:25:11;30.80;;;18.37;;
948;SDS011;461;51.436;7.312;2024-03-22T00:37:43;28.83;;;15.03;;
948;SDS011;461;51.436;7.312;2024-03-22T00:40:09;23.30;;;13.40;;
948;SDS011;461;51.436;7.312;2024-03-22T00:42:35;30.10;;;15.80;;
948;SDS011;461;51.436;7.312;2024-03-22T00:45:01;26.20;;;14.50;;
948;SDS011;461;51.436;7.312;2024-03-22T00:47:27;26.83;;;15.33;;
948;SDS011;461;51.436;7.312;2024-03-22T00:49:52;27.30;;;17.20;;
948;SDS011;461;51.436;7.312;2024-03-22T00:52:18;29.30;;;13.27;;
948;SDS011;461;51.436;7.312;2024-03-22T00:54:44;27.43;;;15.77;;
948;SDS011;461;51.436;7.312;2024-03-22T00:57:09;28.20;;;15.90;;
948;SDS011;461;51.436;7.312;2024-03-22T00:59:35;30.30;;;16.07;;
948;SDS011;461;51.436;7.312;2024-03-22T01:02:01;27.30;;;16.80;;
948;SDS011;461;51.436;7.312;2024-03-22T01:17:17;24.00;;;15.10;;
948;SDS011;461;51.436;7.312;2024-03-22T01:19:43;30.17;;;16.13;;
948;SDS011;461;51.436;7.312;2024-03-22T01:22:08;26.50;;;15.70;;
948;SDS011;461;51.436;7.312;2024-03-22T01:24:34;31.70;;;16.13;;
948;SDS011;461;51.436;7.312;2024-03-22T01:27:00;26.73;;;16.20;;
948;SDS011;461;51.436;7.312;2024-03-22T01:29:25;33.83;;;15.17;;
948;SDS011;461;51.436;7.312;2024-03-22T01:31:55;30.73;;;14.10;;
948;SDS011;461;51.436;7.312;2024-03-22T01:34:21;25.23;;;13.67;;
948;SDS011;461;51.436;7.312;2024-03-22T01:36:46;26.83;;;15.70;;
948;SDS011;461;51.436;7.312;2024-03-22T01:39:12;28.07;;;15.20;;
948;SDS011;461;51.436;7.312;2024-03-22T01:41:39;26.70;;;15.50;;
948;SDS011;461;51.436;7.312;2024-03-22T01:44:05;27.13;;;15.07;;
948;SDS011;461;51.436;7.312;2024-03-22T01:46:31;25.70;;;14.60;;
948;SDS011;461;51.436;7.312;2024-03-22T01:48:57;28.83;;;16.20;;
948;SDS011;461;51.436;7.312;2024-03-22T01:51:23;30.93;;;15.57;;
948;SDS011;461;51.436;7.312;2024-03-22T01:53:49;34.10;;;16.27;;
948;SDS011;461;51.436;7.312;2024-03-22T01:56:15;32.70;;;16.23;;
948;SDS011;461;51.436;7.312;2024-03-22T01:58:40;25.87;;;15.80;;
948;SDS011;461;51.436;7.312;2024-03-22T02:11:13;34.20;;;16.90;;
948;SDS011;461;51.436;7.312;2024-03-22T02:13:38;28.77;;;16.00;;
948;SDS011;461;51.436;7.312;2024-03-22T02:16:04;28.07;;;15.20;;
948;SDS011;461;51.436;7.312;2024-03-22T02:18:30;24.40;;;13.20;;
948;SDS011;461;51.436;7.312;2024-03-22T02:20:56;34.80;;;17.10;;
948;SDS011;461;51.436;7.312;2024-03-22T02:23:44;27.40;;;14.43;;
948;SDS011;461;51.436;7.312;2024-03-22T02:26:08;23.43;;;13.57;;
948;SDS011;461;51.436;7.312;2024-03-22T02:28:34;26.83;;;13.93;;
948;SDS011;461;51.436;7.312;2024-03-22T02:31:01;29.23;;;15.77;;
948;SDS011;461;51.436;7.312;2024-03-22T02:33:28;37.90;;;17.30;;
948;SDS011;461;51.436;7.312;2024-03-22T02:35:53;24.33;;;14.93;;
948;SDS011;461;51.436;7.312;2024-03-22T02:38:19;31.73;;;15.30;;
948;SDS011;461;51.436;7.312;2024-03-22T02:40:45;25.27;;;15.63;;
948;SDS011;461;51.436;7.312;2024-03-22T02:52:41;27.33;;;15.43;;
948;SDS011;461;51.436;7.312;2024-03-22T02:55:07;27.77;;;14.87;;
948;SDS011;461;51.436;7.312;2024-03-22T02:57:33;24.40;;;14.07;;
948;SDS011;461;51.436;7.312;2024-03-22T03:00:02;26.97;;;15.00;;
948;SDS011;461;51.436;7.312;2024-03-22T03:02:28;26.03;;;14.00;;
948;SDS011;461;51.436;7.312;2024-03-22T03:04:54;30.17;;;14.60;;
948;SDS011;461;51.436;7.312;2024-03-22T03:07:20;34.83;;;15.60;;
948;SDS011;461;51.436;7.312;2024-03-22T03:09:45;27.70;;;15.17;;
948;SDS011;461;51.436;7.312;2024-03-22T03:12:11;24.23;;;15.70;;
948;SDS011;461;51.436;7.312;2024-03-22T03:14:37;32.20;;;15.40;;
948;SDS011;461;51.436;7.312;2024-03-22T03:17:02;29.27;;;14.33;;
948;SDS011;461;51.436;7.312;2024-03-22T03:19:28;26.17;;;15.47;;
948;SDS011;461;51.436;7.312;2024-03-22T03:21:54;24.57;;;14.37;;
948;SDS011;461;51.436;7.312;2024-03-22T03:24:20;27.27;;;14.77;;
948;SDS011;461;51.436;7.312;2024-03-22T03:26:45;25.57;;;15.47;;
948;SDS011;461;51.436;7.312;2024-03-22T03:29:11;26.63;;;14.87;;
948;SDS011;461;51.436;7.312;2024-03-22T03:31:37;28.83;;;15.27;;
948;SDS011;461;51.436;7.312;2024-03-22T03:34:02;26.33;;;14.70;;
948;SDS011;461;51.436;7.312;2024-03-22T03:36:28;30.10;;;15.60;;
948;SDS011;461;51.436;7.312;2024-03-22T03:38:54;25.90;;;15.20;;
948;SDS011;461;51.436;7.312;2024-03-22T03:41:19;28.17;;;15.90;;
948;SDS011;461;51.436;7.312;2024-03-22T03:50:29;24.57;;;15.10;;
948;SDS011;461;51.436;7.312;2024-03-22T03:52:55;28.77;;;14.97;;
948;SDS011;461;51.436;7.312;2024-03-22T03:55:21;27.23;;;15.07;;
948;SDS011;461;51.436;7.312;2024-03-22T03:57:49;28.00;;;15.80;;
948;SDS011;461;51.436;7.312;2024-03-22T04:00:15;28.97;;;16.37;;
948;SDS011;461;51.436;7.312;2024-03-22T04:02:42;30.30;;;17.13;;
948;SDS011;461;51.436;7.312;2024-03-22T04:05:08;26.23;;;15.00;;
948;SDS011;461;51.436;7.312;2024-03-22T04:07:34;24.23;;;15.10;;
948;SDS011;461;51.436;7.312;2024-03-22T04:09:59;25.83;;;15.40;;
948;SDS011;461;51.436;7.312;2024-03-22T04:12:26;30.50;;;15.30;;
948;SDS011;461;51.436;7.312;2024-03-22T04:14:52;26.90;;;13.80;;
948;SDS011;461;51.436;7.312;2024-03-22T04:17:18;24.07;;;14.73;;
948;SDS011;461;51.436;7.312;2024-03-22T04:19:43;23.63;;;14.37;;
948;SDS011;461;51.436;7.312;2024-03-22T04:22:09;23.97;;;14.63;;
948;SDS011;461;51.436;7.312;2024-03-22T04:24:35;27.90;;;15.10;;
948;SDS011;461;51.436;7.312;2024-03-22T04:27:00;23.97;;;13.50;;
948;SDS011;461;51.436;7.312;2024-03-22T04:29:26;23.50;;;14.87;;
948;SDS011;461;51.436;7.312;2024-03-22T04:31:52;29.87;;;16.20;;
948;SDS011;461;51.436;7.312;2024-03-22T04:34:18;25.57;;;14.63;;
948;SDS011;461;51.436;7.312;2024-03-22T04:36:44;26.80;;;13.90;;
948;SDS011;461;51.436;7.312;2024-03-22T04:39:09;23.40;;;12.93;;
948;SDS011;461;51.436;7.312;2024-03-22T04:41:37;26.87;;;15.60;;
948;SDS011;461;51.436;7.312;2024-03-22T04:44:03;19.83;;;12.03;;
948;SDS011;461;51.436;7.312;2024-03-22T04:46:28;21.63;;;13.03;;
948;SDS011;461;51.436;7.312;2024-03-22T04:48:54;20.20;;;12.47;;
948;SDS011;461;51.436;7.312;2024-03-22T04:51:20;23.80;;;15.10;;
948;SDS011;461;51.436;7.312;2024-03-22T04:53:45;22.73;;;14.03;;
948;SDS011;461;51.436;7.312;2024-03-22T04:56:11;16.83;;;12.60;;
948;SDS011;461;51.436;7.312;2024-03-22T04:58:37;21.80;;;13.80;;
948;SDS011;461;51.436;7.312;2024-03-22T05:01:02;23.20;;;14.10;;
948;SDS011;461;51.436;7.312;2024-03-22T05:03:28;21.97;;;13.37;;
948;SDS011;461;51.436;7.312;2024-03-22T05:05:54;20.17;;;13.17;;
948;SDS011;461;51.436;7.312;2024-03-22T05:15:06;21.50;;;11.97;;
948;SDS011;461;51.436;7.312;2024-03-22T05:17:32;19.43;;;12.07;;
948;SDS011;461;51.436;7.312;2024-03-22T05:19:58;21.53;;;13.20;;
948;SDS011;461;51.436;7.312;2024-03-22T05:22:24;24.10;;;13.13;;
948;SDS011;461;51.436;7.312;2024-03-22T05:24:50;20.97;;;13.17;;
948;SDS011;461;51.436;7.312;2024-03-22T05:27:19;22.03;;;12.00;;
948;SDS011;461;51.436;7.312;2024-03-22T05:29:45;19.63;;;12.50;;
948;SDS011;461;51.436;7.312;2024-03-22T05:32:10;22.50;;;12.97;;
948;SDS011;461;51.436;7.312;2024-03-22T05:34:36;22.93;;;13.50;;
948;SDS011;461;51.436;7.312;2024-03-22T05:37:02;18.43;;;13.47;;
948;SDS011;461;51.436;7.312;2024-03-22T05:39:28;16.73;;;12.00;;
948;SDS011;461;51.436;7.312;2024-03-22T05:41:53;12.40;;;9.00;;
948;SDS011;461;51.436;7.312;2024-03-22T05:44:22;12.50;;;8.43;;
948;SDS011;461;51.436;7.312;2024-03-22T05:46:48;19.33;;;12.00;;
948;SDS011;461;51.436;7.312;2024-03-22T05:49:14;15.83;;;11.00;;
948;SDS011;461;51.436;7.312;2024-03-22T05:51:40;17.93;;;11.30;;
948;SDS011;461;51.436;7.312;2024-03-22T05:54:06;14.77;;;10.17;;
948;SDS011;461;51.436;7.312;2024-03-22T05:56:32;16.57;;;9.53;;
948;SDS011;461;51.436;7.312;2024-03-22T05:58:58;16.23;;;11.30;;
948;SDS011;461;51.436;7.312;2024-03-22T06:01:24;13.63;;;9.93;;
948;SDS011;461;51.436;7.312;2024-03-22T06:03:50;18.93;;;9.93;;
948;SDS011;461;51.436;7.312;2024-03-22T06:06:16;17.20;;;11.37;;
948;SDS011;461;51.436;7.312;2024-03-22T06:08:43;12.33;;;10.33;;
948;SDS011;461;51.436;7.312;2024-03-22T06:11:10;15.73;;;10.40;;
948;SDS011;461;51.436;7.312;2024-03-22T06:13:36;18.83;;;10.27;;
948;SDS011;461;51.436;7.312;2024-03-22T06:16:02;16.03;;;11.70;;
948;SDS011;461;51.436;7.312;2024-03-22T06:18:28;17.90;;;9.83;;
948;SDS011;461;51.436;7.312;2024-03-22T06:20:54;17.70;;;10.90;;
948;SDS011;461;51.436;7.312;2024-03-22T06:23:20;14.67;;;10.37;;
948;SDS011;461;51.436;7.312;2024-03-22T06:25:53;16.93;;;10.40;;
948;SDS011;461;51.436;7.312;2024-03-22T06:28:19;14.90;;;10.60;;
948;SDS011;461;51.436;7.312;2024-03-22T06:30:45;15.70;;;8.33;;
948;SDS011;461;51.436;7.312;2024-03-22T06:33:11;12.20;;;9.10;;
948;SDS011;461;51.436;7.312;2024-03-22T06:35:36;16.13;;;7.80;;
948;SDS011;461;51.436;7.312;2024-03-22T06:38:02;19.03;;;8.50;;
948;SDS011;461;51.436;7.312;2024-03-22T06:40:29;12.63;;;8.67;;
948;SDS011;461;51.436;7.312;2024-03-22T06:42:55;14.87;;;9.70;;
948;SDS011;461;51.436;7.312;2024-03-22T06:45:21;16.13;;;9.77;;
948;SDS011;461;51.436;7.312;2024-03-22T06:47:47;16.53;;;9.97;;
948;SDS011;461;51.436;7.312;2024-03-22T06:50:12;13.73;;;9.87;;
948;SDS011;461;51.436;7.312;2024-03-22T06:52:38;10.93;;;8.40;;
948;SDS011;461;51.436;7.312;2024-03-22T06:55:04;12.97;;;9.20;;
948;SDS011;461;51.436;7.312;2024-03-22T06:57:31;17.10;;;10.03;;
948;SDS011;461;51.436;7.312;2024-03-22T06:59:59;16.87;;;10.17;;
948;SDS011;461;51.436;7.312;2024-03-22T07:02:25;13.50;;;9.57;;
948;SDS011;461;51.436;7.312;2024-03-22T07:04:51;12.53;;;7.90;;
948;SDS011;461;51.436;7.312;2024-03-22T07:07:17;18.03;;;10.27;;
948;SDS011;461;51.436;7.312;2024-03-22T07:16:27;15.97;;;10.47;;
948;SDS011;461;51.436;7.312;2024-03-22T07:18:53;16.63;;;10.23;;
948;SDS011;461;51.436;7.312;2024-03-22T07:21:19;13.33;;;10.07;;
948;SDS011;461;51.436;7.312;2024-03-22T07:23:44;20.30;;;11.13;;
948;SDS011;461;51.436;7.312;2024-03-22T07:26:10;21.90;;;10.77;;
948;SDS011;461;51.436;7.312;2024-03-22T07:28:36;15.70;;;10.70;;
948;SDS011;461;51.436;7.312;2024-03-22T07:31:01;14.57;;;12.20;;
948;SDS011;461;51.436;7.312;2024-03-22T07:33:27;19.40;;;11.57;;
948;SDS011;461;51.436;7.312;2024-03-22T07:36:11;19.17;;;11.60;;
948;SDS011;461;51.436;7.312;2024-03-22T07:52:24;14.60;;;10.67;;
948;SDS011;461;51.436;7.312;2024-03-22T07:54:50;19.87;;;13.40;;
948;SDS011;461;51.436;7.312;2024-03-22T07:57:17;17.00;;;12.57;;
948;SDS011;461;51.436;7.312;2024-03-22T07:59:43;20.20;;;13.10;;
948;SDS011;461;51.436;7.312;2024-03-22T08:15:07;22.00;;;14.07;;
948;SDS011;461;51.436;7.312;2024-03-22T08:21:28;19.33;;;12.90;;
948;SDS011;461;51.436;7.312;2024-03-22T08:23:57;19.37;;;13.50;;
948;SDS011;461;51.436;7.312;2024-03-22T08:29:14;20.33;;;13.20;;
948;SDS011;461;51.436;7.312;2024-03-22T08:31:49;21.27;;;13.23;;
948;SDS011;461;51.436;7.312;2024-03-22T08:34:15;21.20;;;13.87;;
948;SDS011;461;51.436;7.312;2024-03-22T08:36:42;25.50;;;14.20;;
948;SDS011;461;51.436;7.312;2024-03-22T08:39:08;20.73;;;14.00;;
948;SDS011;461;51.436;7.312;2024-03-22T08:41:36;22.73;;;14.27;;
948;SDS011;461;51.436;7.312;2024-03-22T08:44:03;21.20;;;12.83;;
948;SDS011;461;51.436;7.312;2024-03-22T08:46:29;20.73;;;14.17;;
948;SDS011;461;51.436;7.312;2024-03-22T08:55:24;20.30;;;13.20;;
948;SDS011;461;51.436;7.312;2024-03-22T08:57:50;20.43;;;14.30;;
948;SDS011;461;51.436;7.312;2024-03-22T09:00:16;18.23;;;12.50;;
948;SDS011;461;51.436;7.312;2024-03-22T09:02:46;17.40;;;13.03;;
948;SDS011;461;51.436;7.312;2024-03-22T09:05:12;22.97;;;12.83;;
948;SDS011;461;51.436;7.312;2024-03-22T09:07:42;21.17;;;13.03;;
948;SDS011;461;51.436;7.312;2024-03-22T09:10:08;24.40;;;15.40;;
948;SDS011;461;51.436;7.312;2024-03-22T09:21:54;17.13;;;11.30;;
948;SDS011;461;51.436;7.312;2024-03-22T09:30:27;19.17;;;10.90;;
948;SDS011;461;51.436;7.312;2024-03-22T09:41:42;14.23;;;9.60;;
948;SDS011;461;51.436;7.312;2024-03-22T09:50:58;17.30;;;10.70;;
948;SDS011;461;51.436;7.312;2024-03-22T09:53:31;17.60;;;10.80;;
948;SDS011;461;51.436;7.312;2024-03-22T09:55:58;15.27;;;11.10;;
948;SDS011;461;51.436;7.312;2024-03-22T09:58:26;16.77;;;10.77;;
948;SDS011;461;51.436;7.312;2024-03-22T10:00:53;15.33;;;9.30;;
948;SDS011;461;51.436;7.312;2024-03-22T10:03:25;16.00;;;13.10;;
948;SDS011;461;51.436;7.312;2024-03-22T10:05:51;16.33;;;10.57;;
948;SDS011;461;51.436;7.312;2024-03-22T10:08:17;16.40;;;10.03;;
948;SDS011;461;51.436;7.312;2024-03-22T10:10:43;18.50;;;10.57;;
948;SDS011;461;51.436;7.312;2024-03-22T10:13:09;15.73;;;9.73;;
948;SDS011;461;51.436;7.312;2024-03-22T10:15:36;17.40;;;10.53;;
948;SDS011;461;51.436;7.312;2024-03-22T10:18:03;14.57;;;10.43;;
948;SDS011;461;51.436;7.312;2024-03-22T10:20:29;13.87;;;10.50;;
948;SDS011;461;51.436;7.312;2024-03-22T10:22:56;16.83;;;11.40;;
948;SDS011;461;51.436;7.312;2024-03-22T10:25:23;15.60;;;10.43;;
948;SDS011;461;51.436;7.312;2024-03-22T10:27:49;16.53;;;10.13;;
948;SDS011;461;51.436;7.312;2024-03-22T10:30:15;15.70;;;10.10;;
948;SDS011;461;51.436;7.312;2024-03-22T10:32:42;14.17;;;9.30;;
948;SDS011;461;51.436;7.312;2024-03-22T10:35:08;14.77;;;10.00;;
948;SDS011;461;51.436;7.312;2024-03-22T10:37:38;19.53;;;10.37;;
948;SDS011;461;51.436;7.312;2024-03-22T10:40:04;15.70;;;10.13;;
948;SDS011;461;51.436;7.312;2024-03-22T10:42:35;13.33;;;10.07;;
948;SDS011;461;51.436;7.312;2024-03-22T10:45:01;14.30;;;9.90;;
948;SDS011;461;51.436;7.312;2024-03-22T10:47:29;13.73;;;9.30;;
948;SDS011;461;51.436;7.312;2024-03-22T10:50:13;14.17;;;8.80;;
948;SDS011;461;51.436;7.312;2024-03-22T10:55:07;15.53;;;8.20;;
948;SDS011;461;51.436;7.312;2024-03-22T10:57:37;15.37;;;10.03;;
948;SDS011;461;51.436;7.312;2024-03-22T11:00:08;14.83;;;8.93;;
948;SDS011;461;51.436;7.312;2024-03-22T11:02:37;11.30;;;9.57;;
948;SDS011;461;51.436;7.312;2024-03-22T11:05:06;11.60;;;8.80;;
948;SDS011;461;51.436;7.312;2024-03-22T11:07:32;13.80;;;8.30;;
948;SDS011;461;51.436;7.312;2024-03-22T11:10:00;12.60;;;8.20;;
948;SDS011;461;51.436;7.312;2024-03-22T11:12:27;13.20;;;9.83;;
948;SDS011;461;51.436;7.312;2024-03-22T11:14:58;15.23;;;8.90;;
948;SDS011;461;51.436;7.312;2024-03-22T11:17:23;12.80;;;8.83;;
948;SDS011;461;51.436;7.312;2024-03-22T11:19:50;14.07;;;9.10;;
948;SDS011;461;51.436;7.312;2024-03-22T11:22:17;12.73;;;9.13;;
948;SDS011;461;51.436;7.312;2024-03-22T11:24:43;14.60;;;9.87;;
948;SDS011;461;51.436;7.312;2024-03-22T11:27:09;13.63;;;8.87;;
948;SDS011;461;51.436;7.312;2024-03-22T11:29:36;14.13;;;8.80;;
948;SDS011;461;51.436;7.312;2024-03-22T11:32:05;15.90;;;8.23;;
948;SDS011;461;51.436;7.312;2024-03-22T11:34:34;12.80;;;8.47;;
948;SDS011;461;51.436;7.312;2024-03-22T11:37:00;14.60;;;8.10;;
948;SDS011;461;51.436;7.312;2024-03-22T11:39:26;14.30;;;8.03;;
948;SDS011;461;51.436;7.312;2024-03-22T11:41:52;15.53;;;8.60;;
948;SDS011;461;51.436;7.312;2024-03-22T11:44:18;14.83;;;8.30;;
948;SDS011;461;51.436;7.312;2024-03-22T11:46:45;12.60;;;8.33;;
948;SDS011;461;51.436;7.312;2024-03-22T11:49:11;11.33;;;7.97;;
948;SDS011;461;51.436;7.312;2024-03-22T11:51:38;11.10;;;8.17;;
948;SDS011;461;51.436;7.312;2024-03-22T11:54:04;16.87;;;9.10;;
948;SDS011;461;51.436;7.312;2024-03-22T11:56:34;11.93;;;8.87;;
948;SDS011;461;51.436;7.312;2024-03-22T11:59:00;12.87;;;9.23;;
948;SDS011;461;51.436;7.312;2024-03-22T12:01:28;16.30;;;9.30;;
948;SDS011;461;51.436;7.312;2024-03-22T12:03:54;14.87;;;8.13;;
948;SDS011;461;51.436;7.312;2024-03-22T12:06:20;15.33;;;10.30;;
948;SDS011;461;51.436;7.312;2024-03-22T12:08:46;13.17;;;9.57;;
948;SDS011;461;51.436;7.312;2024-03-22T12:11:12;11.90;;;8.50;;
948;SDS011;461;51.436;7.312;2024-03-22T12:13:39;13.57;;;8.80;;
948;SDS011;461;51.436;7.312;2024-03-22T12:16:05;13.30;;;9.07;;
948;SDS011;461;51.436;7.312;2024-03-22T12:18:34;15.50;;;10.10;;
948;SDS011;461;51.436;7.312;2024-03-22T12:21:00;15.47;;;10.30;;
948;SDS011;461;51.436;7.312;2024-03-22T12:23:26;14.60;;;9.73;;
948;SDS011;461;51.436;7.312;2024-03-22T12:25:52;12.50;;;9.37;;
948;SDS011;461;51.436;7.312;2024-03-22T12:28:18;15.43;;;9.90;;
948;SDS011;461;51.436;7.312;2024-03-22T12:30:46;13.23;;;10.07;;
948;SDS011;461;51.436;7.312;2024-03-22T12:33:11;15.57;;;11.53;;
948;SDS011;461;51.436;7.312;2024-03-22T12:35:38;20.27;;;9.67;;
948;SDS011;461;51.436;7.312;2024-03-22T12:38:05;14.13;;;11.20;;
948;SDS011;461;51.436;7.312;2024-03-22T12:40:30;14.00;;;10.10;;
948;SDS011;461;51.436;7.312;2024-03-22T12:42:59;14.40;;;10.17;;
948;SDS011;461;51.436;7.312;2024-03-22T12:45:25;15.07;;;10.90;;
948;SDS011;461;51.436;7.312;2024-03-22T12:47:51;13.50;;;9.80;;
948;SDS011;461;51.436;7.312;2024-03-22T12:50:17;13.13;;;10.47;;
948;SDS011;461;51.436;7.312;2024-03-22T12:52:43;11.93;;;9.30;;
948;SDS011;461;51.436;7.312;2024-03-22T12:55:09;14.13;;;9.43;;
948;SDS011;461;51.436;7.312;2024-03-22T12:57:35;15.10;;;9.50;;
948;SDS011;461;51.436;7.312;2024-03-22T13:00:01;12.60;;;8.63;;
948;SDS011;461;51.436;7.312;2024-03-22T13:02:29;16.23;;;9.20;;
948;SDS011;461;51.436;7.312;2024-03-22T13:04:57;13.57;;;10.23;;
948;SDS011;461;51.436;7.312;2024-03-22T13:07:23;13.97;;;8.63;;
948;SDS011;461;51.436;7.312;2024-03-22T13:09:50;13.33;;;8.37;;
948;SDS011;461;51.436;7.312;2024-03-22T13:21:51;13.40;;;9.23;;
948;SDS011;461;51.436;7.312;2024-03-22T13:24:21;20.83;;;10.73;;
948;SDS011;461;51.436;7.312;2024-03-22T13:26:46;14.20;;;9.60;;
948;SDS011;461;51.436;7.312;2024-03-22T13:29:13;13.57;;;9.70;;
948;SDS011;461;51.436;7.312;2024-03-22T13:31:39;12.43;;;9.90;;
948;SDS011;461;51.436;7.312;2024-03-22T13:40:58;11.33;;;8.90;;
948;SDS011;461;51.436;7.312;2024-03-22T13:43:25;15.10;;;9.93;;
948;SDS011;461;51.436;7.312;2024-03-22T13:45:52;12.50;;;9.37;;
948;SDS011;461;51.436;7.312;2024-03-22T13:48:22;14.47;;;10.10;;
948;SDS011;461;51.436;7.312;2024-03-22T13:50:52;16.83;;;9.60;;
948;SDS011;461;51.436;7.312;2024-03-22T13:53:19;12.70;;;9.60;;
948;SDS011;461;51.436;7.312;2024-03-22T13:55:47;15.90;;;9.60;;
948;SDS011;461;51.436;7.312;2024-03-22T13:58:13;13.87;;;10.23;;
948;SDS011;461;51.436;7.312;2024-03-22T14:04:05;13.27;;;10.20;;
948;SDS011;461;51.436;7.312;2024-03-22T14:06:30;22.13;;;11.03;;
948;SDS011;461;51.436;7.312;2024-03-22T14:08:57;16.20;;;10.63;;
948;SDS011;461;51.436;7.312;2024-03-22T14:11:28;16.80;;;10.77;;
948;SDS011;461;51.436;7.312;2024-03-22T14:13:55;18.80;;;13.50;;
948;SDS011;461;51.436;7.312;2024-03-22T14:19:44;18.47;;;13.37;;
948;SDS011;461;51.436;7.312;2024-03-22T14:22:10;17.60;;;13.10;;
948;SDS011;461;51.436;7.312;2024-03-22T14:24:37;17.13;;;12.70;;
948;SDS011;461;51.436;7.312;2024-03-22T14:27:03;20.40;;;13.53;;
948;SDS011;461;51.436;7.312;2024-03-22T14:29:29;20.50;;;14.67;;
948;SDS011;461;51.436;7.312;2024-03-22T14:31:54;21.27;;;14.07;;
948;SDS011;461;51.436;7.312;2024-03-22T14:34:20;24.90;;;14.93;;
948;SDS011;461;51.436;7.312;2024-03-22T14:36:46;20.00;;;14.73;;
948;SDS011;461;51.436;7.312;2024-03-22T14:39:12;26.50;;;15.53;;
948;SDS011;461;51.436;7.312;2024-03-22T14:41:37;20.27;;;14.77;;
948;SDS011;461;51.436;7.312;2024-03-22T14:44:03;20.67;;;14.03;;
948;SDS011;461;51.436;7.312;2024-03-22T14:46:29;17.30;;;13.80;;
948;SDS011;461;51.436;7.312;2024-03-22T14:48:55;23.70;;;15.80;;
948;SDS011;461;51.436;7.312;2024-03-22T14:51:21;25.83;;;16.13;;
948;SDS011;461;51.436;7.312;2024-03-22T14:53:47;23.83;;;16.27;;
948;SDS011;461;51.436;7.312;2024-03-22T14:56:13;25.53;;;16.23;;
948;SDS011;461;51.436;7.312;2024-03-22T14:58:39;20.60;;;15.03;;
948;SDS011;461;51.436;7.312;2024-03-22T15:07:49;22.87;;;15.30;;
948;SDS011;461;51.436;7.312;2024-03-22T15:10:15;25.70;;;17.63;;
948;SDS011;461;51.436;7.312;2024-03-22T15:12:41;26.63;;;18.60;;
948;SDS011;461;51.436;7.312;2024-03-22T15:15:07;30.50;;;16.33;;
948;SDS011;461;51.436;7.312;2024-03-22T15:17:33;27.93;;;18.63;;
948;SDS011;461;51.436;7.312;2024-03-22T15:19:59;24.70;;;17.03;;
948;SDS011;461;51.436;7.312;2024-03-22T15:22:25;28.10;;;18.83;;
948;SDS011;461;51.436;7.312;2024-03-22T15:24:51;26.80;;;18.27;;
948;SDS011;461;51.436;7.312;2024-03-22T15:27:18;29.43;;;19.03;;
948;SDS011;461;51.436;7.312;2024-03-22T15:29:44;31.07;;;18.70;;
948;SDS011;461;51.436;7.312;2024-03-22T15:32:10;23.50;;;16.47;;
948;SDS011;461;51.436;7.312;2024-03-22T15:34:36;28.73;;;18.00;;
948;SDS011;461;51.436;7.312;2024-03-22T15:37:02;26.43;;;16.50;;
948;SDS011;461;51.436;7.312;2024-03-22T15:39:28;24.50;;;16.67;;
948;SDS011;461;51.436;7.312;2024-03-22T15:41:54;30.47;;;17.70;;
948;SDS011;461;51.436;7.312;2024-03-22T15:44:19;23.70;;;15.60;;
948;SDS011;461;51.436;7.312;2024-03-22T15:46:45;24.53;;;16.20;;
948;SDS011;461;51.436;7.312;2024-03-22T15:49:11;28.83;;;18.43;;
948;SDS011;461;51.436;7.312;2024-03-22T15:51:38;21.23;;;14.90;;
948;SDS011;461;51.436;7.312;2024-03-22T15:54:06;22.77;;;16.87;;
948;SDS011;461;51.436;7.312;2024-03-22T15:56:33;23.20;;;16.90;;
948;SDS011;461;51.436;7.312;2024-03-22T15:58:59;30.97;;;19.27;;
948;SDS011;461;51.436;7.312;2024-03-22T16:01:25;30.67;;;17.13;;
948;SDS011;461;51.436;7.312;2024-03-22T16:03:51;22.07;;;15.30;;
948;SDS011;461;51.436;7.312;2024-03-22T16:09:39;25.23;;;14.47;;
948;SDS011;461;51.436;7.312;2024-03-22T16:18:49;23.63;;;14.30;;
948;SDS011;461;51.436;7.312;2024-03-22T16:21:15;24.80;;;15.60;;
948;SDS011;461;51.436;7.312;2024-03-22T16:23:41;20.83;;;16.27;;
948;SDS011;461;51.436;7.312;2024-03-22T16:26:06;26.47;;;16.63;;
948;SDS011;461;51.436;7.312;2024-03-22T16:28:32;19.33;;;14.07;;
948;SDS011;461;51.436;7.312;2024-03-22T16:30:58;21.20;;;14.00;;
948;SDS011;461;51.436;7.312;2024-03-22T16:33:23;22.47;;;14.63;;
948;SDS011;461;51.436;7.312;2024-03-22T16:35:50;20.50;;;15.13;;
948;SDS011;461;51.436;7.312;2024-03-22T16:38:16;19.47;;;13.50;;
948;SDS011;461;51.436;7.312;2024-03-22T17:13:45;25.00;;;14.73;;
948;SDS011;461;51.436;7.312;2024-03-22T17:16:11;29.43;;;18.30;;
948;SDS011;461;51.436;7.312;2024-03-22T17:18:37;19.90;;;15.33;;
948;SDS011;461;51.436;7.312;2024-03-22T17:27:47;27.03;;;17.10;;
948;SDS011;461;51.436;7.312;2024-03-22T17:30:13;26.30;;;17.87;;
948;SDS011;461;51.436;7.312;2024-03-22T17:32:38;33.53;;;21.33;;
948;SDS011;461;51.436;7.312;2024-03-22T17:35:04;25.30;;;17.80;;
948;SDS011;461;51.436;7.312;2024-03-22T17:37:30;25.10;;;16.63;;
948;SDS011;461;51.436;7.312;2024-03-22T17:39:56;22.27;;;15.80;;
948;SDS011;461;51.436;7.312;2024-03-22T17:42:21;21.60;;;14.43;;
948;SDS011;461;51.436;7.312;2024-03-22T17:44:49;20.87;;;14.37;;
948;SDS011;461;51.436;7.312;2024-03-22T17:47:15;19.57;;;13.23;;
948;SDS011;461;51.436;7.312;2024-03-22T17:49:42;22.50;;;13.60;;
948;SDS011;461;51.436;7.312;2024-03-22T17:52:08;19.10;;;13.03;;
948;SDS011;461;51.436;7.312;2024-03-22T17:54:34;20.40;;;14.17;;
948;SDS011;461;51.436;7.312;2024-03-22T17:57:00;19.63;;;12.57;;
948;SDS011;461;51.436;7.312;2024-03-22T17:59:25;18.13;;;12.30;;
948;SDS011;461;51.436;7.312;2024-03-22T18:01:51;19.80;;;12.87;;
948;SDS011;461;51.436;7.312;2024-03-22T18:04:17;20.83;;;14.30;;
948;SDS011;461;51.436;7.312;2024-03-22T18:06:42;18.43;;;12.30;;
948;SDS011;461;51.436;7.312;2024-03-22T18:09:08;19.90;;;13.47;;
948;SDS011;461;51.436;7.312;2024-03-22T18:18:21;27.17;;;15.13;;
948;SDS011;461;51.436;7.312;2024-03-22T18:20:47;29.73;;;16.63;;
948;SDS011;461;51.436;7.312;2024-03-22T18:23:14;23.97;;;15.07;;
948;SDS011;461;51.436;7.312;2024-03-22T18:25:44;25.40;;;18.20;;
948;SDS011;461;51.436;7.312;2024-03-22T18:28:12;30.90;;;18.60;;
948;SDS011;461;51.436;7.312;2024-03-22T18:30:39;33.00;;;20.40;;
948;SDS011;461;51.436;7.312;2024-03-22T18:39:49;35.97;;;20.70;;
948;SDS011;461;51.436;7.312;2024-03-22T18:42:14;28.97;;;17.43;;
948;SDS011;461;51.436;7.312;2024-03-22T18:44:43;15.33;;;9.40;;
948;SDS011;461;51.436;7.312;2024-03-22T18:47:10;9.40;;;7.43;;
948;SDS011;461;51.436;7.312;2024-03-22T18:49:36;9.50;;;6.90;;
948;SDS011;461;51.436;7.312;2024-03-22T18:52:03;8.83;;;5.00;;
948;SDS011;461;51.436;7.312;2024-03-22T18:54:32;6.60;;;5.57;;
948;SDS011;461;51.436;7.312;2024-03-22T18:56:58;13.20;;;6.30;;
948;SDS011;461;51.436;7.312;2024-03-22T18:59:27;9.90;;;7.13;;
948;SDS011;461;51.436;7.312;2024-03-22T19:08:37;9.77;;;7.30;;
948;SDS011;461;51.436;7.312;2024-03-22T19:11:02;10.13;;;7.50;;
948;SDS011;461;51.436;7.312;2024-03-22T19:13:30;11.60;;;8.40;;
948;SDS011;461;51.436;7.312;2024-03-22T19:15:56;14.83;;;8.77;;
948;SDS011;461;51.436;7.312;2024-03-22T19:18:22;11.63;;;8.77;;
948;SDS011;461;51.436;7.312;2024-03-22T19:20:50;18.13;;;9.80;;
948;SDS011;461;51.436;7.312;2024-03-22T19:23:16;10.40;;;7.60;;